sensor_id;sensor_type;location;lat;lon;timestamp;P1;durP1;ratioP1;P2;durP2;ratioP2
65533;SDS011;53640;55.838;37.184;2022-11-20T00:01:12;9.00;;;6.63;;
65533;SDS011;53640;55.838;37.184;2022-11-20T00:03:40;11.30;;;6.68;;
65533;SDS011;53640;55.838;37.184;2022-11-20T00:06:07;10.63;;;6.18;;
65533;SDS011;53640;55.838;37.184;2022-11-20T00:08:36;10.63;;;6.70;;
65533;SDS011;53640;55.838;37.184;2022-11-20T00:11:06;12.98;;;6.97;;
65533;SDS011;53640;55.838;37.184;2022-11-20T00:13:34;12.82;;;7.25;;
65533;SDS011;53640;55.838;37.184;2022-11-20T00:16:01;10.15;;;6.40;;
65533;SDS011;53640;55.838;37.184;2022-11-20T00:18:29;10.25;;;7.15;;
65533;SDS011;53640;55.838;37.184;2022-11-20T00:21:04;9.48;;;6.10;;
65533;SDS011;53640;55.838;37.184;2022-11-20T00:23:32;12.95;;;7.05;;
65533;SDS011;53640;55.838;37.184;2022-11-20T00:26:02;11.15;;;6.40;;
65533;SDS011;53640;55.838;37.184;2022-11-20T00:28:33;10.55;;;7.18;;
65533;SDS011;53640;55.838;37.184;2022-11-20T00:31:07;10.73;;;7.20;;
65533;SDS011;53640;55.838;37.184;2022-11-20T00:33:36;11.98;;;7.57;;
65533;SDS011;53640;55.838;37.184;2022-11-20T00:36:03;11.93;;;7.22;;
65533;SDS011;53640;55.838;37.184;2022-11-20T00:38:32;12.07;;;7.45;;
65533;SDS011;53640;55.838;37.184;2022-11-20T00:41:02;9.00;;;6.32;;
65533;SDS011;53640;55.838;37.184;2022-11-20T00:43:33;10.60;;;6.45;;
65533;SDS011;53640;55.838;37.184;2022-11-20T00:46:00;11.88;;;7.65;;
65533;SDS011;53640;55.838;37.184;2022-11-20T00:48:31;11.90;;;6.70;;
65533;SDS011;53640;55.838;37.184;2022-11-20T00:50:58;11.07;;;6.57;;
65533;SDS011;53640;55.838;37.184;2022-11-20T00:53:24;9.43;;;6.97;;
65533;SDS011;53640;55.838;37.184;2022-11-20T00:58:22;10.95;;;6.53;;
65533;SDS011;53640;55.838;37.184;2022-11-20T01:00:49;11.63;;;6.80;;
65533;SDS011;53640;55.838;37.184;2022-11-20T01:03:16;12.15;;;7.55;;
65533;SDS011;53640;55.838;37.184;2022-11-20T01:05:43;12.15;;;6.63;;
65533;SDS011;53640;55.838;37.184;2022-11-20T01:08:09;11.20;;;6.85;;
65533;SDS011;53640;55.838;37.184;2022-11-20T01:10:36;10.50;;;7.00;;
65533;SDS011;53640;55.838;37.184;2022-11-20T01:13:02;10.77;;;6.78;;
65533;SDS011;53640;55.838;37.184;2022-11-20T01:15:47;9.73;;;6.32;;
65533;SDS011;53640;55.838;37.184;2022-11-20T01:18:15;11.65;;;6.93;;
65533;SDS011;53640;55.838;37.184;2022-11-20T01:20:41;11.25;;;6.55;;
65533;SDS011;53640;55.838;37.184;2022-11-20T01:23:07;10.10;;;6.53;;
65533;SDS011;53640;55.838;37.184;2022-11-20T01:25:34;10.18;;;6.90;;
65533;SDS011;53640;55.838;37.184;2022-11-20T01:28:00;8.40;;;6.07;;
65533;SDS011;53640;55.838;37.184;2022-11-20T01:30:28;11.60;;;6.68;;
65533;SDS011;53640;55.838;37.184;2022-11-20T01:32:55;10.52;;;6.88;;
65533;SDS011;53640;55.838;37.184;2022-11-20T01:35:21;12.20;;;7.32;;
65533;SDS011;53640;55.838;37.184;2022-11-20T01:37:47;12.02;;;6.07;;
65533;SDS011;53640;55.838;37.184;2022-11-20T01:40:16;8.65;;;5.80;;
65533;SDS011;53640;55.838;37.184;2022-11-20T01:42:47;9.68;;;6.60;;
65533;SDS011;53640;55.838;37.184;2022-11-20T01:46:13;9.55;;;6.28;;
65533;SDS011;53640;55.838;37.184;2022-11-20T01:48:53;9.52;;;6.22;;
65533;SDS011;53640;55.838;37.184;2022-11-20T01:51:32;12.48;;;5.95;;
65533;SDS011;53640;55.838;37.184;2022-11-20T01:54:05;9.55;;;6.45;;
65533;SDS011;53640;55.838;37.184;2022-11-20T01:56:35;9.73;;;5.80;;
65533;SDS011;53640;55.838;37.184;2022-11-20T01:59:04;9.63;;;6.35;;
65533;SDS011;53640;55.838;37.184;2022-11-20T02:01:33;11.77;;;5.93;;
65533;SDS011;53640;55.838;37.184;2022-11-20T02:04:01;8.82;;;5.82;;
65533;SDS011;53640;55.838;37.184;2022-11-20T02:06:29;8.63;;;6.03;;
65533;SDS011;53640;55.838;37.184;2022-11-20T02:09:00;8.98;;;6.40;;
65533;SDS011;53640;55.838;37.184;2022-11-20T02:11:27;9.05;;;5.38;;
65533;SDS011;53640;55.838;37.184;2022-11-20T02:13:55;8.57;;;6.03;;
65533;SDS011;53640;55.838;37.184;2022-11-20T02:18:48;12.15;;;6.60;;
65533;SDS011;53640;55.838;37.184;2022-11-20T02:21:24;11.93;;;7.22;;
65533;SDS011;53640;55.838;37.184;2022-11-20T02:24:19;9.35;;;6.63;;
65533;SDS011;53640;55.838;37.184;2022-11-20T02:26:57;12.13;;;7.32;;
65533;SDS011;53640;55.838;37.184;2022-11-20T02:29:44;9.20;;;6.88;;
65533;SDS011;53640;55.838;37.184;2022-11-20T02:32:19;9.90;;;6.32;;
65533;SDS011;53640;55.838;37.184;2022-11-20T02:34:47;11.48;;;6.97;;
65533;SDS011;53640;55.838;37.184;2022-11-20T02:37:14;11.65;;;7.15;;
65533;SDS011;53640;55.838;37.184;2022-11-20T02:39:41;13.77;;;7.72;;
65533;SDS011;53640;55.838;37.184;2022-11-20T02:42:09;9.63;;;6.05;;
65533;SDS011;53640;55.838;37.184;2022-11-20T02:44:36;10.30;;;6.35;;
65533;SDS011;53640;55.838;37.184;2022-11-20T02:47:02;11.82;;;6.13;;
65533;SDS011;53640;55.838;37.184;2022-11-20T02:49:29;11.43;;;6.50;;
65533;SDS011;53640;55.838;37.184;2022-11-20T02:51:55;9.95;;;6.78;;
65533;SDS011;53640;55.838;37.184;2022-11-20T02:54:21;10.93;;;7.10;;
65533;SDS011;53640;55.838;37.184;2022-11-20T02:56:48;9.75;;;7.00;;
65533;SDS011;53640;55.838;37.184;2022-11-20T02:59:14;12.43;;;7.25;;
65533;SDS011;53640;55.838;37.184;2022-11-20T03:01:40;11.35;;;7.18;;
65533;SDS011;53640;55.838;37.184;2022-11-20T03:04:07;11.38;;;6.75;;
65533;SDS011;53640;55.838;37.184;2022-11-20T03:06:33;10.23;;;6.03;;
65533;SDS011;53640;55.838;37.184;2022-11-20T03:09:00;9.48;;;5.70;;
65533;SDS011;53640;55.838;37.184;2022-11-20T03:11:27;11.98;;;6.97;;
65533;SDS011;53640;55.838;37.184;2022-11-20T03:13:54;11.07;;;6.63;;
65533;SDS011;53640;55.838;37.184;2022-11-20T03:16:21;11.43;;;6.45;;
65533;SDS011;53640;55.838;37.184;2022-11-20T03:18:48;9.27;;;6.00;;
65533;SDS011;53640;55.838;37.184;2022-11-20T03:21:17;9.30;;;6.05;;
65533;SDS011;53640;55.838;37.184;2022-11-20T03:23:43;9.35;;;6.47;;
65533;SDS011;53640;55.838;37.184;2022-11-20T03:26:11;9.35;;;6.00;;
65533;SDS011;53640;55.838;37.184;2022-11-20T03:28:40;8.55;;;5.60;;
65533;SDS011;53640;55.838;37.184;2022-11-20T03:31:12;10.05;;;6.05;;
65533;SDS011;53640;55.838;37.184;2022-11-20T03:33:41;7.70;;;5.13;;
65533;SDS011;53640;55.838;37.184;2022-11-20T03:36:09;8.80;;;5.78;;
65533;SDS011;53640;55.838;37.184;2022-11-20T03:38:39;8.73;;;4.95;;
65533;SDS011;53640;55.838;37.184;2022-11-20T03:41:07;7.93;;;5.45;;
65533;SDS011;53640;55.838;37.184;2022-11-20T03:43:35;10.68;;;6.13;;
65533;SDS011;53640;55.838;37.184;2022-11-20T03:46:02;8.18;;;5.50;;
65533;SDS011;53640;55.838;37.184;2022-11-20T03:48:29;9.43;;;6.22;;
65533;SDS011;53640;55.838;37.184;2022-11-20T03:51:09;8.63;;;5.72;;
65533;SDS011;53640;55.838;37.184;2022-11-20T03:54:03;9.07;;;6.10;;
65533;SDS011;53640;55.838;37.184;2022-11-20T03:56:32;7.97;;;5.47;;
65533;SDS011;53640;55.838;37.184;2022-11-20T03:59:00;11.05;;;6.60;;
65533;SDS011;53640;55.838;37.184;2022-11-20T04:01:27;9.95;;;5.82;;
65533;SDS011;53640;55.838;37.184;2022-11-20T04:03:59;7.53;;;4.70;;
65533;SDS011;53640;55.838;37.184;2022-11-20T04:06:27;10.27;;;5.70;;
65533;SDS011;53640;55.838;37.184;2022-11-20T04:09:01;8.48;;;5.53;;
65533;SDS011;53640;55.838;37.184;2022-11-20T04:11:29;7.22;;;4.50;;
65533;SDS011;53640;55.838;37.184;2022-11-20T04:14:00;8.50;;;5.32;;
65533;SDS011;53640;55.838;37.184;2022-11-20T04:16:29;7.07;;;4.35;;
65533;SDS011;53640;55.838;37.184;2022-11-20T04:18:58;9.90;;;6.00;;
65533;SDS011;53640;55.838;37.184;2022-11-20T04:21:25;8.38;;;5.50;;
65533;SDS011;53640;55.838;37.184;2022-11-20T04:23:53;7.20;;;4.80;;
65533;SDS011;53640;55.838;37.184;2022-11-20T04:26:19;8.85;;;5.57;;
65533;SDS011;53640;55.838;37.184;2022-11-20T04:28:47;6.50;;;4.35;;
65533;SDS011;53640;55.838;37.184;2022-11-20T04:31:14;8.43;;;5.30;;
65533;SDS011;53640;55.838;37.184;2022-11-20T04:33:46;6.72;;;4.00;;
65533;SDS011;53640;55.838;37.184;2022-11-20T04:36:16;6.00;;;4.30;;
65533;SDS011;53640;55.838;37.184;2022-11-20T04:38:50;8.23;;;4.60;;
65533;SDS011;53640;55.838;37.184;2022-11-20T04:41:18;7.95;;;4.80;;
65533;SDS011;53640;55.838;37.184;2022-11-20T04:43:47;7.00;;;4.53;;
65533;SDS011;53640;55.838;37.184;2022-11-20T04:46:15;7.85;;;5.07;;
65533;SDS011;53640;55.838;37.184;2022-11-20T04:48:42;9.50;;;5.78;;
65533;SDS011;53640;55.838;37.184;2022-11-20T04:51:08;9.93;;;5.90;;
65533;SDS011;53640;55.838;37.184;2022-11-20T04:53:34;8.48;;;5.93;;
65533;SDS011;53640;55.838;37.184;2022-11-20T04:56:01;9.32;;;5.88;;
65533;SDS011;53640;55.838;37.184;2022-11-20T04:58:30;7.95;;;5.60;;
65533;SDS011;53640;55.838;37.184;2022-11-20T05:01:00;10.27;;;5.50;;
65533;SDS011;53640;55.838;37.184;2022-11-20T05:03:31;9.45;;;6.10;;
65533;SDS011;53640;55.838;37.184;2022-11-20T05:06:01;10.02;;;6.03;;
65533;SDS011;53640;55.838;37.184;2022-11-20T05:08:29;9.50;;;5.90;;
65533;SDS011;53640;55.838;37.184;2022-11-20T05:11:16;9.60;;;5.50;;
65533;SDS011;53640;55.838;37.184;2022-11-20T05:13:45;9.48;;;5.65;;
65533;SDS011;53640;55.838;37.184;2022-11-20T05:16:13;10.93;;;6.43;;
65533;SDS011;53640;55.838;37.184;2022-11-20T05:18:43;8.52;;;5.88;;
65533;SDS011;53640;55.838;37.184;2022-11-20T05:21:12;9.65;;;6.18;;
65533;SDS011;53640;55.838;37.184;2022-11-20T05:23:47;12.43;;;6.65;;
65533;SDS011;53640;55.838;37.184;2022-11-20T05:26:15;8.88;;;5.60;;
65533;SDS011;53640;55.838;37.184;2022-11-20T05:28:43;10.30;;;5.60;;
65533;SDS011;53640;55.838;37.184;2022-11-20T05:31:10;11.05;;;6.18;;
65533;SDS011;53640;55.838;37.184;2022-11-20T05:33:40;8.98;;;5.43;;
65533;SDS011;53640;55.838;37.184;2022-11-20T05:36:11;9.63;;;5.85;;
65533;SDS011;53640;55.838;37.184;2022-11-20T05:38:39;12.60;;;6.90;;
65533;SDS011;53640;55.838;37.184;2022-11-20T05:41:11;11.73;;;6.80;;
65533;SDS011;53640;55.838;37.184;2022-11-20T05:43:40;11.68;;;6.45;;
65533;SDS011;53640;55.838;37.184;2022-11-20T05:46:09;11.85;;;6.88;;
65533;SDS011;53640;55.838;37.184;2022-11-20T05:48:40;8.57;;;5.32;;
65533;SDS011;53640;55.838;37.184;2022-11-20T05:51:08;8.20;;;5.22;;
65533;SDS011;53640;55.838;37.184;2022-11-20T05:53:36;9.98;;;6.25;;
65533;SDS011;53640;55.838;37.184;2022-11-20T05:56:10;9.00;;;5.38;;
65533;SDS011;53640;55.838;37.184;2022-11-20T05:58:38;12.63;;;7.15;;
65533;SDS011;53640;55.838;37.184;2022-11-20T06:01:15;12.25;;;6.15;;
65533;SDS011;53640;55.838;37.184;2022-11-20T06:03:45;7.03;;;4.45;;
65533;SDS011;53640;55.838;37.184;2022-11-20T06:06:13;6.13;;;3.80;;
65533;SDS011;53640;55.838;37.184;2022-11-20T06:08:41;8.57;;;5.70;;
65533;SDS011;53640;55.838;37.184;2022-11-20T06:11:08;7.13;;;4.40;;
65533;SDS011;53640;55.838;37.184;2022-11-20T06:13:36;6.30;;;4.45;;
65533;SDS011;53640;55.838;37.184;2022-11-20T06:16:03;8.45;;;4.90;;
65533;SDS011;53640;55.838;37.184;2022-11-20T06:18:30;6.68;;;3.78;;
65533;SDS011;53640;55.838;37.184;2022-11-20T06:21:15;7.25;;;3.95;;
65533;SDS011;53640;55.838;37.184;2022-11-20T06:23:43;9.45;;;5.95;;
65533;SDS011;53640;55.838;37.184;2022-11-20T06:26:14;8.18;;;4.55;;
65533;SDS011;53640;55.838;37.184;2022-11-20T06:29:00;6.22;;;3.80;;
65533;SDS011;53640;55.838;37.184;2022-11-20T06:31:28;5.47;;;3.97;;
65533;SDS011;53640;55.838;37.184;2022-11-20T06:33:55;5.28;;;3.78;;
65533;SDS011;53640;55.838;37.184;2022-11-20T06:36:21;9.85;;;5.00;;
65533;SDS011;53640;55.838;37.184;2022-11-20T06:38:48;7.28;;;4.15;;
65533;SDS011;53640;55.838;37.184;2022-11-20T06:41:16;7.85;;;4.10;;
65533;SDS011;53640;55.838;37.184;2022-11-20T06:43:46;6.25;;;3.85;;
65533;SDS011;53640;55.838;37.184;2022-11-20T06:46:13;8.30;;;5.18;;
65533;SDS011;53640;55.838;37.184;2022-11-20T06:48:43;7.05;;;4.53;;
65533;SDS011;53640;55.838;37.184;2022-11-20T06:51:10;6.20;;;4.43;;
65533;SDS011;53640;55.838;37.184;2022-11-20T06:53:36;12.15;;;6.30;;
65533;SDS011;53640;55.838;37.184;2022-11-20T06:56:03;10.50;;;6.00;;
65533;SDS011;53640;55.838;37.184;2022-11-20T06:58:30;11.00;;;6.55;;
65533;SDS011;53640;55.838;37.184;2022-11-20T07:00:59;7.30;;;4.57;;
65533;SDS011;53640;55.838;37.184;2022-11-20T07:03:26;9.20;;;5.28;;
65533;SDS011;53640;55.838;37.184;2022-11-20T07:05:56;9.43;;;5.00;;
65533;SDS011;53640;55.838;37.184;2022-11-20T07:08:23;7.25;;;4.90;;
65533;SDS011;53640;55.838;37.184;2022-11-20T07:10:50;10.52;;;6.22;;
65533;SDS011;53640;55.838;37.184;2022-11-20T07:13:18;8.40;;;5.07;;
65533;SDS011;53640;55.838;37.184;2022-11-20T07:15:44;7.63;;;4.75;;
65533;SDS011;53640;55.838;37.184;2022-11-20T07:18:10;11.60;;;5.88;;
65533;SDS011;53640;55.838;37.184;2022-11-20T07:20:36;6.10;;;4.22;;
65533;SDS011;53640;55.838;37.184;2022-11-20T07:23:04;10.02;;;5.93;;
65533;SDS011;53640;55.838;37.184;2022-11-20T07:25:30;8.80;;;5.85;;
65533;SDS011;53640;55.838;37.184;2022-11-20T07:27:59;9.05;;;4.90;;
65533;SDS011;53640;55.838;37.184;2022-11-20T07:30:27;6.72;;;4.28;;
65533;SDS011;53640;55.838;37.184;2022-11-20T07:32:55;6.65;;;4.60;;
65533;SDS011;53640;55.838;37.184;2022-11-20T07:35:23;10.43;;;6.28;;
65533;SDS011;53640;55.838;37.184;2022-11-20T07:37:50;9.45;;;5.43;;
65533;SDS011;53640;55.838;37.184;2022-11-20T07:40:16;8.77;;;4.70;;
65533;SDS011;53640;55.838;37.184;2022-11-20T07:42:50;10.10;;;6.00;;
65533;SDS011;53640;55.838;37.184;2022-11-20T07:45:19;7.43;;;4.85;;
65533;SDS011;53640;55.838;37.184;2022-11-20T07:47:48;8.05;;;4.15;;
65533;SDS011;53640;55.838;37.184;2022-11-20T07:50:17;6.85;;;4.53;;
65533;SDS011;53640;55.838;37.184;2022-11-20T07:52:45;6.60;;;4.03;;
65533;SDS011;53640;55.838;37.184;2022-11-20T07:55:13;11.70;;;6.53;;
65533;SDS011;53640;55.838;37.184;2022-11-20T07:57:39;13.38;;;7.07;;
65533;SDS011;53640;55.838;37.184;2022-11-20T08:00:07;9.23;;;5.78;;
65533;SDS011;53640;55.838;37.184;2022-11-20T08:02:41;7.35;;;4.80;;
65533;SDS011;53640;55.838;37.184;2022-11-20T08:05:08;11.32;;;5.63;;
65533;SDS011;53640;55.838;37.184;2022-11-20T08:07:39;6.97;;;5.00;;
65533;SDS011;53640;55.838;37.184;2022-11-20T08:10:07;9.15;;;4.93;;
65533;SDS011;53640;55.838;37.184;2022-11-20T08:12:35;10.02;;;5.93;;
65533;SDS011;53640;55.838;37.184;2022-11-20T08:15:29;12.60;;;5.47;;
65533;SDS011;53640;55.838;37.184;2022-11-20T08:18:03;7.80;;;5.30;;
65533;SDS011;53640;55.838;37.184;2022-11-20T08:20:31;6.10;;;4.45;;
65533;SDS011;53640;55.838;37.184;2022-11-20T08:23:02;10.27;;;5.55;;
65533;SDS011;53640;55.838;37.184;2022-11-20T08:28:02;10.50;;;5.60;;
65533;SDS011;53640;55.838;37.184;2022-11-20T08:30:32;9.70;;;5.95;;
65533;SDS011;53640;55.838;37.184;2022-11-20T08:33:05;8.38;;;4.90;;
65533;SDS011;53640;55.838;37.184;2022-11-20T08:35:37;10.13;;;5.43;;
65533;SDS011;53640;55.838;37.184;2022-11-20T08:38:04;12.35;;;6.88;;
65533;SDS011;53640;55.838;37.184;2022-11-20T08:40:31;17.17;;;8.27;;
65533;SDS011;53640;55.838;37.184;2022-11-20T08:42:59;16.23;;;7.32;;
65533;SDS011;53640;55.838;37.184;2022-11-20T08:45:27;20.67;;;9.43;;
65533;SDS011;53640;55.838;37.184;2022-11-20T08:47:59;11.18;;;6.60;;
65533;SDS011;53640;55.838;37.184;2022-11-20T08:50:26;16.85;;;7.75;;
65533;SDS011;53640;55.838;37.184;2022-11-20T08:52:52;14.32;;;6.43;;
65533;SDS011;53640;55.838;37.184;2022-11-20T08:55:21;15.07;;;7.88;;
65533;SDS011;53640;55.838;37.184;2022-11-20T08:57:48;17.08;;;9.13;;
65533;SDS011;53640;55.838;37.184;2022-11-20T09:00:15;13.15;;;7.20;;
65533;SDS011;53640;55.838;37.184;2022-11-20T09:02:42;15.93;;;7.10;;
65533;SDS011;53640;55.838;37.184;2022-11-20T09:05:09;11.20;;;6.85;;
65533;SDS011;53640;55.838;37.184;2022-11-20T09:07:38;10.13;;;5.85;;
65533;SDS011;53640;55.838;37.184;2022-11-20T09:10:06;12.32;;;7.18;;
65533;SDS011;53640;55.838;37.184;2022-11-20T09:12:33;12.05;;;6.75;;
65533;SDS011;53640;55.838;37.184;2022-11-20T09:15:03;18.80;;;10.32;;
65533;SDS011;53640;55.838;37.184;2022-11-20T09:17:30;26.27;;;13.32;;
65533;SDS011;53640;55.838;37.184;2022-11-20T09:19:56;19.73;;;9.50;;
65533;SDS011;53640;55.838;37.184;2022-11-20T09:22:23;28.25;;;12.73;;
65533;SDS011;53640;55.838;37.184;2022-11-20T09:24:50;22.48;;;11.20;;
65533;SDS011;53640;55.838;37.184;2022-11-20T09:27:17;21.83;;;9.63;;
65533;SDS011;53640;55.838;37.184;2022-11-20T09:29:48;25.35;;;12.68;;
65533;SDS011;53640;55.838;37.184;2022-11-20T09:32:14;31.40;;;13.48;;
65533;SDS011;53640;55.838;37.184;2022-11-20T09:34:43;19.95;;;10.73;;
65533;SDS011;53640;55.838;37.184;2022-11-20T09:37:12;33.07;;;16.10;;
65533;SDS011;53640;55.838;37.184;2022-11-20T09:39:43;33.28;;;15.43;;
65533;SDS011;53640;55.838;37.184;2022-11-20T09:42:17;21.45;;;11.13;;
65533;SDS011;53640;55.838;37.184;2022-11-20T09:45:05;25.27;;;11.57;;
65533;SDS011;53640;55.838;37.184;2022-11-20T09:50:27;26.27;;;12.35;;
65533;SDS011;53640;55.838;37.184;2022-11-20T09:55:50;24.65;;;10.98;;
65533;SDS011;53640;55.838;37.184;2022-11-20T10:01:11;22.27;;;10.80;;
65533;SDS011;53640;55.838;37.184;2022-11-20T10:09:29;24.77;;;12.13;;
65533;SDS011;53640;55.838;37.184;2022-11-20T10:31:14;21.77;;;11.13;;
65533;SDS011;53640;55.838;37.184;2022-11-20T10:33:54;22.55;;;10.93;;
65533;SDS011;53640;55.838;37.184;2022-11-20T10:36:40;17.27;;;9.55;;
65533;SDS011;53640;55.838;37.184;2022-11-20T10:39:18;18.55;;;10.43;;
65533;SDS011;53640;55.838;37.184;2022-11-20T10:42:08;17.10;;;9.65;;
65533;SDS011;53640;55.838;37.184;2022-11-20T10:44:51;20.63;;;11.55;;
65533;SDS011;53640;55.838;37.184;2022-11-20T10:47:30;19.63;;;9.85;;
65533;SDS011;53640;55.838;37.184;2022-11-20T10:50:01;16.40;;;8.57;;
65533;SDS011;53640;55.838;37.184;2022-11-20T10:52:36;21.75;;;11.18;;
65533;SDS011;53640;55.838;37.184;2022-11-20T10:58:13;12.80;;;7.82;;
65533;SDS011;53640;55.838;37.184;2022-11-20T11:00:43;16.05;;;8.85;;
65533;SDS011;53640;55.838;37.184;2022-11-20T11:06:02;16.30;;;8.43;;
65533;SDS011;53640;55.838;37.184;2022-11-20T11:08:35;17.30;;;9.38;;
65533;SDS011;53640;55.838;37.184;2022-11-20T11:11:23;14.82;;;8.60;;
65533;SDS011;53640;55.838;37.184;2022-11-20T11:14:13;16.70;;;8.82;;
65533;SDS011;53640;55.838;37.184;2022-11-20T11:16:58;13.40;;;7.47;;
65533;SDS011;53640;55.838;37.184;2022-11-20T11:19:26;15.48;;;8.05;;
65533;SDS011;53640;55.838;37.184;2022-11-20T11:21:59;17.52;;;8.95;;
65533;SDS011;53640;55.838;37.184;2022-11-20T11:24:32;15.45;;;9.15;;
65533;SDS011;53640;55.838;37.184;2022-11-20T11:27:11;14.05;;;7.60;;
65533;SDS011;53640;55.838;37.184;2022-11-20T11:29:45;14.00;;;7.85;;
65533;SDS011;53640;55.838;37.184;2022-11-20T11:32:15;14.73;;;7.60;;
65533;SDS011;53640;55.838;37.184;2022-11-20T11:35:03;14.98;;;8.60;;
65533;SDS011;53640;55.838;37.184;2022-11-20T11:37:33;16.23;;;8.13;;
65533;SDS011;53640;55.838;37.184;2022-11-20T11:40:31;13.93;;;7.60;;
65533;SDS011;53640;55.838;37.184;2022-11-20T11:43:07;10.98;;;7.15;;
65533;SDS011;53640;55.838;37.184;2022-11-20T11:46:19;16.60;;;9.90;;
65533;SDS011;53640;55.838;37.184;2022-11-20T11:48:58;20.08;;;10.07;;
65533;SDS011;53640;55.838;37.184;2022-11-20T11:55:02;14.90;;;8.68;;
65533;SDS011;53640;55.838;37.184;2022-11-20T11:57:26;14.48;;;8.13;;
65533;SDS011;53640;55.838;37.184;2022-11-20T12:02:37;20.20;;;8.27;;
65533;SDS011;53640;55.838;37.184;2022-11-20T12:07:46;14.05;;;8.45;;
65533;SDS011;53640;55.838;37.184;2022-11-20T12:13:13;13.60;;;8.05;;
65533;SDS011;53640;55.838;37.184;2022-11-20T12:15:53;12.95;;;7.05;;
65533;SDS011;53640;55.838;37.184;2022-11-20T12:18:21;11.95;;;7.60;;
65533;SDS011;53640;55.838;37.184;2022-11-20T12:21:35;12.40;;;7.40;;
65533;SDS011;53640;55.838;37.184;2022-11-20T12:50:22;17.40;;;9.07;;
65533;SDS011;53640;55.838;37.184;2022-11-20T12:52:57;11.80;;;8.20;;
65533;SDS011;53640;55.838;37.184;2022-11-20T12:55:36;14.00;;;7.80;;
65533;SDS011;53640;55.838;37.184;2022-11-20T12:58:27;13.90;;;9.20;;
65533;SDS011;53640;55.838;37.184;2022-11-20T13:01:25;16.23;;;9.20;;
65533;SDS011;53640;55.838;37.184;2022-11-20T13:06:57;14.27;;;8.32;;
65533;SDS011;53640;55.838;37.184;2022-11-20T13:09:25;13.40;;;8.45;;
65533;SDS011;53640;55.838;37.184;2022-11-20T13:12:04;15.07;;;8.15;;
65533;SDS011;53640;55.838;37.184;2022-11-20T13:14:58;13.65;;;8.95;;
65533;SDS011;53640;55.838;37.184;2022-11-20T13:20:18;13.88;;;7.78;;
65533;SDS011;53640;55.838;37.184;2022-11-20T13:22:46;12.63;;;7.88;;
65533;SDS011;53640;55.838;37.184;2022-11-20T13:25:34;13.98;;;7.90;;
65533;SDS011;53640;55.838;37.184;2022-11-20T13:30:35;16.17;;;9.25;;
65533;SDS011;53640;55.838;37.184;2022-11-20T13:33:30;16.77;;;10.40;;
65533;SDS011;53640;55.838;37.184;2022-11-20T13:41:33;13.85;;;7.63;;
65533;SDS011;53640;55.838;37.184;2022-11-20T13:44:13;11.27;;;7.40;;
65533;SDS011;53640;55.838;37.184;2022-11-20T13:46:47;13.73;;;8.27;;
65533;SDS011;53640;55.838;37.184;2022-11-20T13:49:21;15.50;;;9.55;;
65533;SDS011;53640;55.838;37.184;2022-11-20T13:55:11;17.25;;;9.38;;
65533;SDS011;53640;55.838;37.184;2022-11-20T14:00:46;14.93;;;9.13;;
65533;SDS011;53640;55.838;37.184;2022-11-20T14:03:22;16.33;;;8.35;;
65533;SDS011;53640;55.838;37.184;2022-11-20T14:05:55;14.60;;;9.00;;
65533;SDS011;53640;55.838;37.184;2022-11-20T14:08:35;14.27;;;8.00;;
65533;SDS011;53640;55.838;37.184;2022-11-20T14:11:24;18.58;;;9.30;;
65533;SDS011;53640;55.838;37.184;2022-11-20T14:14:00;17.42;;;9.70;;
65533;SDS011;53640;55.838;37.184;2022-11-20T14:16:30;15.82;;;9.43;;
65533;SDS011;53640;55.838;37.184;2022-11-20T14:21:48;13.15;;;7.80;;
65533;SDS011;53640;55.838;37.184;2022-11-20T14:24:23;13.27;;;7.30;;
65533;SDS011;53640;55.838;37.184;2022-11-20T14:26:55;11.80;;;7.63;;
65533;SDS011;53640;55.838;37.184;2022-11-20T14:29:22;13.30;;;8.23;;
65533;SDS011;53640;55.838;37.184;2022-11-20T14:31:54;13.05;;;7.50;;
65533;SDS011;53640;55.838;37.184;2022-11-20T14:34:26;13.23;;;9.05;;
65533;SDS011;53640;55.838;37.184;2022-11-20T14:37:03;18.98;;;10.07;;
65533;SDS011;53640;55.838;37.184;2022-11-20T14:39:33;15.68;;;9.15;;
65533;SDS011;53640;55.838;37.184;2022-11-20T14:42:01;15.07;;;8.88;;
65533;SDS011;53640;55.838;37.184;2022-11-20T14:44:32;14.90;;;8.20;;
65533;SDS011;53640;55.838;37.184;2022-11-20T14:47:00;16.42;;;9.90;;
65533;SDS011;53640;55.838;37.184;2022-11-20T14:49:31;14.57;;;8.52;;
65533;SDS011;53640;55.838;37.184;2022-11-20T14:52:01;16.70;;;9.40;;
65533;SDS011;53640;55.838;37.184;2022-11-20T14:54:46;13.85;;;8.82;;
65533;SDS011;53640;55.838;37.184;2022-11-20T14:57:28;12.20;;;7.22;;
65533;SDS011;53640;55.838;37.184;2022-11-20T15:02:41;14.27;;;8.95;;
65533;SDS011;53640;55.838;37.184;2022-11-20T15:05:12;16.58;;;9.10;;
65533;SDS011;53640;55.838;37.184;2022-11-20T15:07:41;14.60;;;9.30;;
65533;SDS011;53640;55.838;37.184;2022-11-20T15:12:59;18.50;;;10.18;;
65533;SDS011;53640;55.838;37.184;2022-11-20T15:18:15;16.58;;;8.68;;
65533;SDS011;53640;55.838;37.184;2022-11-20T15:20:50;18.48;;;10.45;;
65533;SDS011;53640;55.838;37.184;2022-11-20T15:23:18;15.27;;;9.60;;
65533;SDS011;53640;55.838;37.184;2022-11-20T15:25:45;14.55;;;9.38;;
65533;SDS011;53640;55.838;37.184;2022-11-20T15:28:21;15.60;;;9.15;;
65533;SDS011;53640;55.838;37.184;2022-11-20T15:30:55;15.57;;;8.55;;
65533;SDS011;53640;55.838;37.184;2022-11-20T15:33:24;16.10;;;8.85;;
65533;SDS011;53640;55.838;37.184;2022-11-20T15:36:17;15.07;;;9.07;;
65533;SDS011;53640;55.838;37.184;2022-11-20T15:39:22;13.88;;;8.70;;
65533;SDS011;53640;55.838;37.184;2022-11-20T15:41:49;13.00;;;7.18;;
65533;SDS011;53640;55.838;37.184;2022-11-20T15:44:20;11.65;;;7.35;;
65533;SDS011;53640;55.838;37.184;2022-11-20T15:46:55;15.90;;;8.77;;
65533;SDS011;53640;55.838;37.184;2022-11-20T15:49:21;13.90;;;8.10;;
65533;SDS011;53640;55.838;37.184;2022-11-20T15:51:49;16.13;;;9.45;;
65533;SDS011;53640;55.838;37.184;2022-11-20T15:54:18;16.00;;;9.60;;
65533;SDS011;53640;55.838;37.184;2022-11-20T15:56:47;16.77;;;9.63;;
65533;SDS011;53640;55.838;37.184;2022-11-20T15:59:14;20.35;;;9.60;;
65533;SDS011;53640;55.838;37.184;2022-11-20T16:01:41;20.23;;;10.75;;
65533;SDS011;53640;55.838;37.184;2022-11-20T16:04:11;20.42;;;10.88;;
65533;SDS011;53640;55.838;37.184;2022-11-20T16:06:42;17.63;;;9.77;;
65533;SDS011;53640;55.838;37.184;2022-11-20T16:09:09;17.00;;;10.15;;
65533;SDS011;53640;55.838;37.184;2022-11-20T16:11:35;16.00;;;10.02;;
65533;SDS011;53640;55.838;37.184;2022-11-20T16:14:05;17.52;;;10.13;;
65533;SDS011;53640;55.838;37.184;2022-11-20T16:16:50;17.23;;;9.50;;
65533;SDS011;53640;55.838;37.184;2022-11-20T16:19:17;17.17;;;7.75;;
65533;SDS011;53640;55.838;37.184;2022-11-20T16:21:43;14.25;;;6.93;;
65533;SDS011;53640;55.838;37.184;2022-11-20T16:24:10;15.98;;;9.40;;
65533;SDS011;53640;55.838;37.184;2022-11-20T16:26:38;17.02;;;10.40;;
65533;SDS011;53640;55.838;37.184;2022-11-20T16:29:05;17.02;;;10.30;;
65533;SDS011;53640;55.838;37.184;2022-11-20T16:31:32;17.17;;;10.13;;
65533;SDS011;53640;55.838;37.184;2022-11-20T16:34:01;19.13;;;11.05;;
65533;SDS011;53640;55.838;37.184;2022-11-20T16:36:29;16.33;;;10.07;;
65533;SDS011;53640;55.838;37.184;2022-11-20T16:38:58;20.55;;;10.63;;
65533;SDS011;53640;55.838;37.184;2022-11-20T16:41:26;15.80;;;9.50;;
65533;SDS011;53640;55.838;37.184;2022-11-20T16:43:54;16.02;;;9.35;;